createdAt,value
2018-12-06T00:00:35.105Z,25.73
2018-12-06T00:01:35.149Z,25.69
2018-12-06T00:02:35.053Z,25.75
2018-12-06T00:03:35.055Z,25.76
2018-12-06T00:04:35.056Z,25.76
2018-12-06T00:05:35.063Z,25.76
2018-12-06T00:06:35.069Z,25.70
2018-12-06T00:07:35.065Z,25.75
2018-12-06T00:08:35.069Z,25.82
2018-12-06T00:09:35.078Z,25.77
2018-12-06T00:10:35.076Z,25.79
2018-12-06T00:11:35.079Z,25.77
2018-12-06T00:12:35.081Z,25.80
2018-12-06T00:13:35.085Z,25.73
2018-12-06T00:14:35.091Z,25.75
2018-12-06T00:15:35.091Z,25.77
2018-12-06T00:16:35.095Z,25.75
2018-12-06T00:17:35.098Z,25.77
2018-12-06T00:18:35.102Z,25.69
2018-12-06T00:19:35.102Z,25.80
2018-12-06T00:20:35.105Z,25.73
2018-12-06T00:21:35.111Z,25.70
2018-12-06T00:22:35.120Z,25.70
2018-12-06T00:23:35.115Z,25.69
2018-12-06T00:24:35.121Z,25.76
2018-12-06T00:25:35.123Z,25.79
2018-12-06T00:26:35.128Z,25.76
2018-12-06T00:27:35.129Z,25.75
2018-12-06T00:28:35.133Z,25.73
2018-12-06T00:29:35.135Z,25.76
2018-12-06T00:30:35.137Z,25.77
2018-12-06T00:31:35.140Z,25.76
2018-12-06T00:32:35.143Z,25.75
2018-12-06T00:33:35.147Z,25.82
2018-12-06T00:34:35.150Z,25.82
2018-12-06T00:35:35.155Z,25.75
2018-12-06T00:36:35.154Z,25.79
2018-12-06T00:37:35.159Z,25.79
2018-12-06T00:38:35.163Z,25.80
2018-12-06T00:39:35.165Z,25.79
2018-12-06T00:40:35.168Z,25.80
2018-12-06T00:41:35.173Z,25.79
2018-12-06T00:42:35.175Z,25.79
2018-12-06T00:43:35.227Z,25.80
2018-12-06T00:44:35.181Z,25.75
2018-12-06T00:45:35.185Z,25.79
2018-12-06T00:46:35.183Z,25.76
2018-12-06T00:47:35.191Z,25.79
2018-12-06T00:48:35.194Z,25.79
2018-12-06T00:49:35.196Z,25.76
2018-12-06T00:50:35.203Z,25.76
2018-12-06T00:51:35.200Z,25.80
2018-12-06T00:52:35.205Z,25.79
2018-12-06T00:53:35.209Z,25.80
2018-12-06T00:54:35.213Z,25.80
2018-12-06T00:55:35.214Z,25.75
2018-12-06T00:56:35.218Z,25.83
2018-12-06T00:57:35.225Z,25.79
2018-12-06T00:58:35.224Z,25.76
2018-12-06T00:59:35.228Z,25.82
2018-12-06T01:00:35.230Z,25.82
2018-12-06T01:01:35.240Z,25.77
2018-12-06T01:02:35.238Z,25.83
2018-12-06T01:03:35.240Z,25.85
2018-12-06T01:04:35.243Z,25.83
2018-12-06T01:05:35.245Z,25.88
2018-12-06T01:06:35.251Z,25.85
2018-12-06T01:07:35.253Z,25.79
2018-12-06T01:08:35.255Z,25.83
2018-12-06T01:09:35.258Z,25.82
2018-12-06T01:10:35.269Z,25.77
2018-12-06T01:11:35.271Z,25.82
2018-12-06T01:12:35.273Z,25.85
2018-12-06T01:13:35.320Z,25.76
2018-12-06T01:14:35.274Z,25.76
2018-12-06T01:15:35.277Z,25.83
2018-12-06T01:16:35.280Z,25.79
2018-12-06T01:17:35.284Z,25.79
2018-12-06T01:18:35.287Z,25.83
2018-12-06T01:19:35.289Z,25.82
2018-12-06T01:20:35.295Z,25.77
2018-12-06T01:21:35.295Z,25.79
2018-12-06T01:22:35.300Z,25.69
2018-12-06T01:23:35.302Z,25.77
2018-12-06T01:24:35.304Z,25.76
2018-12-06T01:25:35.308Z,25.83
2018-12-06T01:26:35.313Z,25.83
2018-12-06T01:27:35.315Z,25.82
2018-12-06T01:28:35.317Z,25.85
2018-12-06T01:29:35.320Z,25.91
2018-12-06T01:30:35.323Z,25.90
2018-12-06T01:31:35.327Z,25.83
2018-12-06T01:32:35.329Z,25.76
2018-12-06T01:33:35.334Z,25.83
2018-12-06T01:34:35.387Z,25.80
2018-12-06T01:35:35.338Z,25.79
2018-12-06T01:36:35.351Z,25.79
2018-12-06T01:37:35.349Z,25.85
2018-12-06T01:38:35.350Z,25.80
2018-12-06T01:39:35.351Z,25.80
2018-12-06T01:40:35.354Z,25.77
2018-12-06T01:41:35.356Z,25.80
2018-12-06T01:42:35.366Z,25.76
2018-12-06T01:43:35.364Z,25.87
2018-12-06T01:44:35.367Z,25.80
2018-12-06T01:45:35.374Z,25.83
2018-12-06T01:46:35.373Z,25.80
2018-12-06T01:47:35.376Z,25.79
2018-12-06T01:48:35.379Z,25.73
2018-12-06T01:49:35.384Z,25.82
2018-12-06T01:50:35.387Z,25.79
2018-12-06T01:51:35.388Z,25.82
2018-12-06T01:52:35.391Z,25.79
2018-12-06T01:53:35.394Z,25.83
2018-12-06T01:54:35.398Z,25.82
2018-12-06T01:55:35.400Z,25.77
2018-12-06T01:56:35.402Z,25.83
2018-12-06T01:57:35.406Z,25.79
2018-12-06T01:58:35.413Z,25.77
2018-12-06T01:59:35.413Z,25.76
2018-12-06T02:00:35.414Z,25.76
2018-12-06T02:01:35.473Z,25.77
2018-12-06T02:02:35.429Z,25.77
2018-12-06T02:03:35.427Z,25.70
2018-12-06T02:04:35.434Z,25.79
2018-12-06T02:05:35.433Z,25.76
2018-12-06T02:06:35.437Z,25.76
2018-12-06T02:07:35.439Z,25.76
2018-12-06T02:08:35.444Z,25.82
2018-12-06T02:09:35.444Z,25.79
2018-12-06T02:10:35.447Z,25.79
2018-12-06T02:11:35.450Z,25.82
2018-12-06T02:12:35.453Z,25.80
2018-12-06T02:13:35.456Z,25.75
2018-12-06T02:14:35.463Z,25.75
2018-12-06T02:15:35.462Z,25.75
2018-12-06T02:16:35.467Z,25.73
2018-12-06T02:17:35.543Z,25.79
2018-12-06T02:18:35.475Z,25.76
2018-12-06T02:19:35.476Z,25.73
2018-12-06T02:20:35.478Z,25.76
2018-12-06T02:21:35.481Z,25.76
2018-12-06T02:22:35.485Z,25.76
2018-12-06T02:23:35.487Z,25.75
2018-12-06T02:24:35.490Z,25.75
2018-12-06T02:25:35.493Z,25.69
2018-12-06T02:26:35.499Z,25.77
2018-12-06T02:27:35.500Z,25.80
2018-12-06T02:28:35.503Z,25.75
2018-12-06T02:29:35.505Z,25.76
2018-12-06T02:30:35.515Z,25.76
2018-12-06T02:31:35.511Z,25.75
2018-12-06T02:32:35.515Z,25.75
2018-12-06T02:33:35.522Z,25.70
2018-12-06T02:34:35.521Z,25.75
2018-12-06T02:35:35.525Z,25.72
2018-12-06T02:36:35.528Z,25.77
2018-12-06T02:37:35.533Z,25.75
2018-12-06T02:38:35.536Z,25.75
2018-12-06T02:39:35.589Z,25.75
2018-12-06T02:40:35.540Z,25.73
2018-12-06T02:41:35.543Z,25.75
2018-12-06T02:42:35.545Z,25.75
2018-12-06T02:43:35.549Z,25.73
2018-12-06T02:44:35.557Z,25.80
2018-12-06T02:45:35.555Z,25.76
2018-12-06T02:46:35.556Z,25.77
2018-12-06T02:47:35.563Z,25.75
2018-12-06T02:48:35.565Z,25.76
2018-12-06T02:49:35.568Z,25.77
2018-12-06T02:50:35.573Z,25.76
2018-12-06T02:51:35.576Z,25.75
2018-12-06T02:52:35.577Z,25.80
2018-12-06T02:53:35.580Z,25.75
2018-12-06T02:54:35.591Z,25.79
2018-12-06T02:55:35.593Z,25.77
2018-12-06T02:56:35.593Z,25.79
2018-12-06T02:57:35.592Z,25.80
2018-12-06T02:58:35.602Z,25.80
2018-12-06T02:59:35.601Z,25.73
2018-12-06T03:00:35.600Z,25.76
2018-12-06T03:01:35.613Z,25.82
2018-12-06T03:02:35.607Z,25.75
2018-12-06T03:03:35.610Z,25.80
2018-12-06T03:04:35.615Z,25.76
2018-12-06T03:05:35.617Z,25.80
2018-12-06T03:06:35.671Z,25.79
2018-12-06T03:07:35.623Z,25.79
2018-12-06T03:08:35.626Z,25.79
2018-12-06T03:09:35.630Z,25.76
2018-12-06T03:10:35.633Z,25.76
2018-12-06T03:11:35.635Z,25.79
2018-12-06T03:12:35.640Z,25.87
2018-12-06T03:13:35.642Z,25.80
2018-12-06T03:14:35.646Z,25.82
2018-12-06T03:15:35.648Z,25.82
2018-12-06T03:16:35.652Z,25.87
2018-12-06T03:17:35.656Z,25.79
2018-12-06T03:18:35.659Z,25.77
2018-12-06T03:19:35.663Z,25.77
2018-12-06T03:20:35.664Z,25.79
2018-12-06T03:21:35.668Z,25.83
2018-12-06T03:22:35.670Z,25.80
2018-12-06T03:23:35.724Z,25.83
2018-12-06T03:24:35.676Z,25.82
2018-12-06T03:25:35.679Z,25.79
2018-12-06T03:26:35.684Z,25.77
2018-12-06T03:27:35.686Z,25.79
2018-12-06T03:28:35.739Z,25.79
2018-12-06T03:29:35.692Z,25.79
2018-12-06T03:30:35.753Z,25.80
2018-12-06T03:31:35.696Z,25.77
2018-12-06T03:32:35.702Z,25.76
2018-12-06T03:33:35.705Z,25.83
2018-12-06T03:34:35.708Z,25.83
2018-12-06T03:35:35.711Z,25.75
2018-12-06T03:36:35.715Z,25.79
2018-12-06T03:37:35.718Z,25.83
2018-12-06T03:38:35.721Z,25.77
2018-12-06T03:39:35.722Z,25.79
2018-12-06T03:40:35.730Z,25.80
2018-12-06T03:41:35.729Z,25.77
2018-12-06T03:42:35.735Z,25.79
2018-12-06T03:43:35.739Z,25.83
2018-12-06T03:44:35.739Z,25.85
2018-12-06T03:45:35.742Z,25.79
2018-12-06T03:46:35.749Z,25.85
2018-12-06T03:47:35.751Z,25.82
2018-12-06T03:48:35.748Z,25.79
2018-12-06T03:49:35.754Z,25.79
2018-12-06T03:50:35.758Z,25.73
2018-12-06T03:51:35.761Z,25.79
2018-12-06T03:52:35.763Z,25.75
2018-12-06T03:53:35.769Z,25.76
2018-12-06T03:54:35.768Z,25.82
2018-12-06T03:55:35.771Z,25.73
2018-12-06T03:56:35.775Z,25.75
2018-12-06T03:57:35.779Z,25.75
2018-12-06T03:58:35.783Z,25.80
2018-12-06T03:59:35.784Z,25.79
2018-12-06T04:00:35.789Z,25.75
2018-12-06T04:01:35.793Z,25.79
2018-12-06T04:02:35.807Z,25.80
2018-12-06T04:03:35.812Z,25.76
2018-12-06T04:04:35.810Z,25.75
2018-12-06T04:05:35.806Z,25.73
2018-12-06T04:06:35.807Z,25.75
2018-12-06T04:07:35.812Z,25.76
2018-12-06T04:08:35.814Z,25.79
2018-12-06T04:09:35.829Z,25.75
2018-12-06T04:10:35.821Z,25.75
2018-12-06T04:11:35.825Z,25.75
2018-12-06T04:12:35.825Z,25.72
2018-12-06T04:13:35.830Z,25.72
2018-12-06T04:14:35.833Z,25.77
2018-12-06T04:15:35.834Z,25.75
2018-12-06T04:16:35.837Z,25.73
2018-12-06T04:17:35.839Z,25.75
2018-12-06T04:18:35.844Z,25.75
2018-12-06T04:19:35.850Z,25.77
2018-12-06T04:20:35.850Z,25.76
2018-12-06T04:21:35.855Z,25.79
2018-12-06T04:22:35.857Z,25.75
2018-12-06T04:23:35.859Z,25.75
2018-12-06T04:24:35.864Z,25.73
2018-12-06T04:25:35.866Z,25.77
2018-12-06T04:26:35.877Z,25.77
2018-12-06T04:27:35.877Z,25.76
2018-12-06T04:28:35.889Z,25.76
2018-12-06T04:29:35.892Z,25.77
2018-12-06T04:30:35.890Z,25.79
2018-12-06T04:31:35.885Z,25.79
2018-12-06T04:32:35.888Z,25.80
2018-12-06T04:33:35.891Z,25.75
2018-12-06T04:34:35.895Z,25.76
2018-12-06T04:35:35.947Z,25.80
2018-12-06T04:36:36.000Z,25.67
2018-12-06T04:37:35.906Z,25.80
2018-12-06T04:38:35.907Z,25.79
2018-12-06T04:39:35.910Z,25.87
2018-12-06T04:40:35.912Z,25.80
2018-12-06T04:41:35.916Z,25.76
2018-12-06T04:42:35.919Z,25.76
2018-12-06T04:43:35.925Z,25.79
2018-12-06T04:44:35.924Z,25.79
2018-12-06T04:45:35.929Z,25.73
2018-12-06T04:46:35.939Z,25.77
2018-12-06T04:47:35.935Z,25.73
2018-12-06T04:48:35.938Z,25.80
2018-12-06T04:49:35.940Z,25.76
2018-12-06T04:50:35.944Z,25.82
2018-12-06T04:51:35.946Z,25.73
2018-12-06T04:52:35.951Z,25.76
2018-12-06T04:53:35.953Z,25.76
2018-12-06T04:54:35.965Z,25.87
2018-12-06T04:55:35.959Z,25.80
2018-12-06T04:56:35.962Z,25.79
2018-12-06T04:57:35.966Z,25.79
2018-12-06T04:58:35.968Z,25.82
2018-12-06T04:59:35.970Z,25.75
2018-12-06T05:00:35.996Z,25.77
2018-12-06T05:01:36.078Z,25.79
2018-12-06T05:02:35.981Z,25.75
2018-12-06T05:03:35.983Z,25.79
2018-12-06T05:04:36.037Z,25.79
2018-12-06T05:05:36.004Z,25.75
2018-12-06T05:06:35.994Z,25.77
2018-12-06T05:07:35.996Z,25.79
2018-12-06T05:08:35.999Z,25.73
2018-12-06T05:09:36.003Z,25.75
2018-12-06T05:10:36.006Z,25.79
2018-12-06T05:11:36.058Z,25.77
2018-12-06T05:12:36.012Z,25.79
2018-12-06T05:13:36.015Z,25.79
2018-12-06T05:14:36.068Z,25.79
2018-12-06T05:15:36.020Z,25.79
2018-12-06T05:16:36.024Z,25.82
2018-12-06T05:17:36.027Z,25.80
2018-12-06T05:18:36.030Z,25.77
2018-12-06T05:19:36.033Z,25.77
2018-12-06T05:20:36.037Z,25.77
2018-12-06T05:21:36.040Z,25.82
2018-12-06T05:22:36.043Z,25.80
2018-12-06T05:23:36.045Z,25.79
2018-12-06T05:24:36.049Z,25.76
2018-12-06T05:25:36.052Z,25.77
2018-12-06T05:26:36.055Z,25.75
2018-12-06T05:27:36.058Z,25.75
2018-12-06T05:28:36.064Z,25.79
2018-12-06T05:29:36.064Z,25.76
2018-12-06T05:30:36.067Z,25.76
2018-12-06T05:31:36.071Z,25.79
2018-12-06T05:32:36.073Z,25.80
2018-12-06T05:33:36.077Z,25.80
2018-12-06T05:34:36.080Z,25.79
2018-12-06T05:35:36.082Z,25.80
2018-12-06T05:36:36.085Z,25.82
2018-12-06T05:37:36.089Z,25.77
2018-12-06T05:38:36.093Z,25.79
2018-12-06T05:39:36.095Z,25.79
2018-12-06T05:40:36.098Z,25.79
2018-12-06T05:41:36.105Z,25.67
2018-12-06T05:42:36.107Z,25.67
2018-12-06T05:43:36.108Z,25.70
2018-12-06T05:44:36.110Z,25.73
2018-12-06T05:45:36.113Z,25.60
2018-12-06T05:46:36.174Z,25.61
2018-12-06T05:47:36.126Z,25.65
2018-12-06T05:48:36.127Z,25.65
2018-12-06T05:49:36.178Z,25.55
2018-12-06T05:50:36.130Z,25.51
2018-12-06T05:51:36.131Z,25.50
2018-12-06T05:52:36.134Z,25.54
2018-12-06T05:53:36.138Z,25.51
2018-12-06T05:54:36.191Z,25.50
2018-12-06T05:55:36.144Z,25.52
2018-12-06T05:56:36.147Z,25.54
2018-12-06T05:57:36.160Z,25.50
2018-12-06T05:58:36.158Z,25.46
2018-12-06T05:59:36.156Z,25.45
2018-12-06T06:00:36.162Z,25.46
2018-12-06T06:01:36.266Z,25.39
2018-12-06T06:02:36.167Z,25.33
2018-12-06T06:03:36.168Z,25.40
2018-12-06T06:04:36.223Z,25.36
2018-12-06T06:05:36.174Z,25.36
2018-12-06T06:06:36.181Z,25.36
2018-12-06T06:07:36.187Z,25.33
2018-12-06T06:08:36.187Z,25.36
2018-12-06T06:09:36.191Z,25.33
2018-12-06T06:10:36.190Z,25.33
2018-12-06T06:11:36.192Z,25.38
2018-12-06T06:12:36.195Z,25.38
2018-12-06T06:13:36.199Z,25.33
2018-12-06T06:14:36.201Z,25.32
2018-12-06T06:15:36.203Z,25.33
2018-12-06T06:16:36.208Z,25.28
2018-12-06T06:17:36.210Z,25.36
2018-12-06T06:18:36.213Z,25.21
2018-12-06T06:19:36.216Z,25.21
2018-12-06T06:20:36.218Z,25.27
2018-12-06T06:21:36.271Z,25.24
2018-12-06T06:22:36.230Z,25.21
2018-12-06T06:23:36.230Z,25.30
2018-12-06T06:24:36.237Z,25.23
2018-12-06T06:25:36.258Z,25.23
2018-12-06T06:26:36.235Z,25.23
2018-12-06T06:27:36.238Z,25.20
2018-12-06T06:28:36.241Z,25.20
2018-12-06T06:29:36.495Z,25.20
2018-12-06T06:30:36.247Z,25.18
2018-12-06T06:31:36.249Z,25.20
2018-12-06T06:32:36.258Z,25.17
2018-12-06T06:33:36.259Z,25.17
2018-12-06T06:34:36.262Z,25.20
2018-12-06T06:35:36.268Z,25.23
2018-12-06T06:36:36.264Z,25.20
2018-12-06T06:37:36.269Z,25.14
2018-12-06T06:38:36.282Z,25.23
2018-12-06T06:39:36.273Z,25.15
2018-12-06T06:40:36.276Z,25.15
2018-12-06T06:41:36.279Z,25.13
2018-12-06T06:42:36.334Z,25.10
2018-12-06T06:43:36.286Z,25.20
2018-12-06T06:44:36.437Z,25.10
2018-12-06T06:45:36.290Z,25.13
2018-12-06T06:46:36.293Z,25.09
2018-12-06T06:47:36.300Z,25.17
2018-12-06T06:48:36.301Z,25.13
2018-12-06T06:49:36.302Z,25.10
2018-12-06T06:50:36.306Z,25.05
2018-12-06T06:51:36.309Z,25.05
2018-12-06T06:52:36.311Z,25.10
2018-12-06T06:53:36.314Z,25.15
2018-12-06T06:54:36.320Z,25.20
2018-12-06T06:55:36.318Z,25.10
2018-12-06T06:56:36.322Z,25.13
2018-12-06T06:57:36.324Z,24.98
2018-12-06T06:58:36.338Z,25.03
2018-12-06T06:59:36.330Z,25.03
2018-12-06T07:00:36.585Z,25.06
2018-12-06T07:01:36.486Z,25.14
2018-12-06T07:02:36.340Z,25.05
2018-12-06T07:03:36.341Z,25.08
2018-12-06T07:04:36.349Z,25.05
2018-12-06T07:05:36.347Z,25.03
2018-12-06T07:06:36.351Z,25.05
2018-12-06T07:07:36.354Z,25.03
2018-12-06T07:08:36.383Z,25.02
2018-12-06T07:09:36.414Z,25.06
2018-12-06T07:10:36.364Z,25.08
2018-12-06T07:11:36.365Z,25.00
2018-12-06T07:12:36.368Z,25.02
2018-12-06T07:13:36.370Z,25.00
2018-12-06T07:14:36.375Z,25.09
2018-12-06T07:15:36.398Z,25.05
2018-12-06T07:16:36.378Z,25.00
2018-12-06T07:17:36.483Z,25.00
2018-12-06T07:18:36.401Z,25.05
2018-12-06T07:19:36.387Z,24.99
2018-12-06T07:20:36.391Z,25.05
2018-12-06T07:21:36.394Z,25.03
2018-12-06T07:22:36.405Z,25.05
2018-12-06T07:23:36.397Z,25.03
2018-12-06T07:24:36.412Z,25.09
2018-12-06T07:25:36.421Z,25.23
2018-12-06T07:26:36.520Z,25.17
2018-12-06T07:27:36.408Z,25.20
2018-12-06T07:28:36.412Z,25.24
2018-12-06T07:29:36.414Z,25.33
2018-12-06T07:30:36.419Z,25.38
2018-12-06T07:31:36.425Z,25.43
2018-12-06T07:32:36.424Z,25.42
2018-12-06T07:33:36.428Z,25.33
2018-12-06T07:34:36.430Z,25.45
2018-12-06T07:35:36.482Z,25.47
2018-12-06T07:36:36.436Z,25.52
2018-12-06T07:37:36.455Z,25.54
2018-12-06T07:38:36.442Z,25.55
2018-12-06T07:39:36.444Z,25.64
2018-12-06T07:40:36.446Z,25.64
2018-12-06T07:41:36.451Z,25.61
2018-12-06T07:42:36.552Z,25.61
2018-12-06T07:43:36.455Z,25.69
2018-12-06T07:44:36.468Z,25.69
2018-12-06T07:45:36.464Z,25.72
2018-12-06T07:46:36.665Z,25.75
2018-12-06T07:47:36.517Z,25.80
2018-12-06T07:48:36.470Z,25.76
2018-12-06T07:49:36.524Z,25.82
2018-12-06T07:50:36.480Z,25.92
2018-12-06T07:51:36.479Z,25.87
2018-12-06T07:52:36.483Z,25.88
2018-12-06T07:53:36.487Z,25.90
2018-12-06T07:54:36.488Z,25.91
2018-12-06T07:55:36.499Z,25.92
2018-12-06T07:56:36.495Z,25.92
2018-12-06T07:57:36.499Z,26.01
2018-12-06T07:58:36.502Z,25.98
2018-12-06T07:59:36.506Z,25.98
2018-12-06T08:00:36.610Z,26.01
2018-12-06T08:01:36.515Z,25.98
2018-12-06T08:02:36.593Z,26.15
2018-12-06T08:03:36.517Z,26.06
2018-12-06T08:04:36.522Z,26.06
2018-12-06T08:05:36.524Z,26.12
2018-12-06T08:06:36.528Z,26.12
2018-12-06T08:07:36.531Z,26.13
2018-12-06T08:08:36.534Z,26.12
2018-12-06T08:09:36.539Z,26.18
2018-12-06T08:10:36.546Z,26.06
2018-12-06T08:11:36.544Z,26.20
2018-12-06T08:12:36.547Z,26.23
2018-12-06T08:13:36.553Z,26.21
2018-12-06T08:14:36.555Z,26.21
2018-12-06T08:15:36.607Z,26.23
2018-12-06T08:16:36.560Z,26.10
2018-12-06T08:17:36.566Z,26.13
2018-12-06T08:18:36.618Z,26.12
2018-12-06T08:19:36.570Z,26.15
2018-12-06T08:20:36.577Z,26.13
2018-12-06T08:21:36.578Z,26.10
2018-12-06T08:22:36.583Z,26.10
2018-12-06T08:23:36.585Z,26.12
2018-12-06T08:24:36.640Z,26.13
2018-12-06T08:25:36.591Z,26.12
2018-12-06T08:26:36.602Z,26.10
2018-12-06T08:27:36.648Z,26.13
2018-12-06T08:28:36.602Z,26.15
2018-12-06T08:29:36.607Z,26.23
2018-12-06T08:30:36.608Z,26.26
2018-12-06T08:31:36.612Z,26.23
2018-12-06T08:32:36.618Z,26.23
2018-12-06T08:33:36.618Z,26.30
2018-12-06T08:34:36.624Z,26.36
2018-12-06T08:35:36.624Z,26.28
2018-12-06T08:36:36.629Z,26.25
2018-12-06T08:37:36.732Z,26.36
2018-12-06T08:38:36.635Z,26.29
2018-12-06T08:39:36.642Z,26.29
2018-12-06T08:40:36.641Z,26.29
2018-12-06T08:41:36.651Z,26.33
2018-12-06T08:42:36.652Z,26.30
2018-12-06T08:43:36.705Z,26.36
2018-12-06T08:44:36.653Z,26.36
2018-12-06T08:45:36.659Z,26.32
2018-12-06T08:46:36.663Z,26.29
2018-12-06T08:47:36.867Z,26.37
2018-12-06T08:48:36.668Z,26.35
2018-12-06T08:49:36.723Z,26.33
2018-12-06T08:50:36.677Z,26.18
2018-12-06T08:51:36.679Z,26.29
2018-12-06T08:52:36.683Z,26.33
2018-12-06T08:53:36.687Z,26.29
2018-12-06T08:54:36.690Z,26.35
2018-12-06T08:55:36.693Z,26.30
2018-12-06T08:56:36.698Z,26.23
2018-12-06T08:57:36.750Z,26.29
2018-12-06T08:58:36.705Z,26.33
2018-12-06T08:59:36.757Z,26.30
2018-12-06T09:00:36.763Z,26.29
2018-12-06T09:01:36.715Z,26.37
2018-12-06T09:02:36.819Z,26.33
2018-12-06T09:03:36.721Z,26.36
2018-12-06T09:04:37.650Z,26.37
2018-12-06T09:05:36.779Z,26.29
2018-12-06T09:06:36.729Z,26.37
2018-12-06T09:07:36.739Z,26.35
2018-12-06T09:08:36.739Z,26.32
2018-12-06T09:09:36.747Z,26.40
2018-12-06T09:10:36.799Z,26.32
2018-12-06T09:11:36.753Z,26.29
2018-12-06T09:12:36.752Z,26.30
2018-12-06T09:13:38.622Z,26.25
2018-12-06T09:14:36.760Z,26.32
2018-12-06T09:15:36.762Z,26.30
2018-12-06T09:16:36.765Z,26.33
2018-12-06T09:17:36.782Z,26.28
2018-12-06T09:18:36.873Z,26.29
2018-12-06T09:19:36.832Z,26.26
2018-12-06T09:20:36.786Z,26.29
2018-12-06T09:21:36.833Z,26.26
2018-12-06T09:22:36.791Z,26.32
2018-12-06T09:23:36.789Z,26.29
2018-12-06T09:24:36.793Z,26.29
2018-12-06T09:25:36.797Z,26.30
2018-12-06T09:26:36.799Z,26.23
2018-12-06T09:27:36.803Z,26.29
2018-12-06T09:28:38.362Z,26.30
2018-12-06T09:29:36.810Z,26.26
2018-12-06T09:30:36.814Z,26.32
2018-12-06T09:31:36.929Z,26.30
2018-12-06T09:32:36.820Z,26.25
2018-12-06T09:33:36.874Z,26.32
2018-12-06T09:34:36.843Z,26.28
2018-12-06T09:35:36.832Z,26.35
2018-12-06T09:36:36.838Z,26.36
2018-12-06T09:37:36.839Z,26.36
2018-12-06T09:38:36.841Z,26.40
2018-12-06T09:39:36.897Z,26.37
2018-12-06T09:40:36.850Z,26.39
2018-12-06T09:41:36.850Z,26.39
2018-12-06T09:42:36.855Z,26.39
2018-12-06T09:43:36.858Z,26.21
2018-12-06T09:44:36.895Z,26.30
2018-12-06T09:45:37.116Z,26.25
2018-12-06T09:46:36.877Z,26.29
2018-12-06T09:47:36.871Z,26.20
2018-12-06T09:48:36.926Z,26.23
2018-12-06T09:49:37.030Z,26.23
2018-12-06T09:50:37.035Z,26.21
2018-12-06T09:51:36.885Z,26.37
2018-12-06T09:52:36.891Z,26.35
2018-12-06T09:53:36.892Z,26.36
2018-12-06T09:54:36.895Z,26.33
2018-12-06T09:55:36.899Z,26.39
2018-12-06T09:56:36.902Z,26.39
2018-12-06T09:57:36.925Z,26.40
2018-12-06T09:58:36.909Z,26.40
2018-12-06T09:59:37.014Z,26.45
2018-12-06T10:00:37.067Z,26.40
2018-12-06T10:01:37.020Z,26.44
2018-12-06T10:02:37.131Z,26.40
2018-12-06T10:03:36.929Z,26.43
2018-12-06T10:04:36.931Z,26.43
2018-12-06T10:05:36.935Z,26.45
2018-12-06T10:06:36.944Z,26.48
2018-12-06T10:07:36.993Z,26.44
2018-12-06T10:08:36.949Z,26.50
2018-12-06T10:09:37.051Z,26.40
2018-12-06T10:10:36.953Z,26.43
2018-12-06T10:11:36.955Z,26.48
2018-12-06T10:12:37.009Z,26.47
2018-12-06T10:13:36.963Z,26.48
2018-12-06T10:14:36.967Z,26.40
2018-12-06T10:15:36.969Z,26.51
2018-12-06T10:16:37.073Z,26.50
2018-12-06T10:17:36.978Z,26.50
2018-12-06T10:18:37.130Z,26.47
2018-12-06T10:19:37.083Z,26.48
2018-12-06T10:20:36.989Z,26.51
2018-12-06T10:21:36.991Z,26.50
2018-12-06T10:22:37.045Z,26.43
2018-12-06T10:23:36.998Z,26.48
2018-12-06T10:24:37.002Z,26.40
2018-12-06T10:25:37.005Z,26.48
2018-12-06T10:26:37.006Z,26.50
2018-12-06T10:27:37.011Z,26.57
2018-12-06T10:28:37.015Z,26.52
2018-12-06T10:29:37.069Z,26.50
2018-12-06T10:30:37.123Z,26.52
2018-12-06T10:31:37.025Z,26.54
2018-12-06T10:32:37.030Z,26.52
2018-12-06T10:33:37.031Z,26.54
2018-12-06T10:34:37.035Z,26.55
2018-12-06T10:35:37.040Z,26.47
2018-12-06T10:36:37.044Z,26.50
2018-12-06T10:37:37.049Z,26.52
2018-12-06T10:38:37.051Z,26.55
2018-12-06T10:39:37.106Z,26.51
2018-12-06T10:40:37.062Z,26.54
2018-12-06T10:41:37.072Z,26.51
2018-12-06T10:42:37.067Z,26.55
2018-12-06T10:43:37.072Z,26.57
2018-12-06T10:44:37.120Z,26.54
2018-12-06T10:45:37.072Z,26.54
2018-12-06T10:46:37.079Z,26.57
2018-12-06T10:47:37.082Z,26.54
2018-12-06T10:48:37.085Z,26.57
2018-12-06T10:49:37.090Z,26.57
2018-12-06T10:50:37.094Z,26.51
2018-12-06T10:51:37.099Z,26.62
2018-12-06T10:52:37.100Z,26.55
2018-12-06T10:53:37.155Z,26.55
2018-12-06T10:54:37.108Z,26.55
2018-12-06T10:55:37.109Z,26.57
2018-12-06T10:56:37.117Z,26.50
2018-12-06T10:57:37.121Z,26.51
2018-12-06T10:58:37.123Z,26.55
2018-12-06T10:59:37.126Z,26.57
2018-12-06T11:00:37.132Z,26.50
2018-12-06T11:01:37.183Z,26.58
2018-12-06T11:02:37.135Z,26.54
2018-12-06T11:03:37.141Z,26.57
2018-12-06T11:04:37.197Z,26.66
2018-12-06T11:05:37.247Z,26.62
2018-12-06T11:06:37.202Z,26.65
2018-12-06T11:07:37.152Z,26.62
2018-12-06T11:08:37.158Z,26.69
2018-12-06T11:09:37.162Z,26.60
2018-12-06T11:10:37.166Z,26.63
2018-12-06T11:11:37.169Z,26.63
2018-12-06T11:12:37.172Z,26.62
2018-12-06T11:13:37.328Z,26.62
2018-12-06T11:14:37.181Z,26.62
2018-12-06T11:15:37.285Z,26.62
2018-12-06T11:16:37.195Z,26.63
2018-12-06T11:17:37.193Z,26.65
2018-12-06T11:18:37.196Z,26.65
2018-12-06T11:19:37.201Z,26.72
2018-12-06T11:20:37.302Z,26.69
2018-12-06T11:21:37.213Z,26.72
2018-12-06T11:22:37.214Z,26.76
2018-12-06T11:23:37.228Z,26.67
2018-12-06T11:24:37.216Z,26.76
2018-12-06T11:25:37.221Z,26.73
2018-12-06T11:26:37.274Z,26.72
2018-12-06T11:27:37.227Z,26.70
2018-12-06T11:28:37.281Z,26.67
2018-12-06T11:29:37.385Z,26.75
2018-12-06T11:30:37.941Z,26.67
2018-12-06T11:31:37.242Z,26.75
2018-12-06T11:32:37.352Z,26.75
2018-12-06T11:33:37.249Z,26.75
2018-12-06T11:34:37.253Z,26.77
2018-12-06T11:35:37.356Z,26.77
2018-12-06T11:36:37.261Z,26.70
2018-12-06T11:37:37.264Z,26.76
2018-12-06T11:38:37.268Z,26.69
2018-12-06T11:39:37.271Z,26.72
2018-12-06T11:40:37.275Z,26.76
2018-12-06T11:41:43.004Z,26.73
2018-12-06T11:42:37.282Z,26.73
2018-12-06T11:43:37.336Z,26.77
2018-12-06T11:44:37.291Z,26.76
2018-12-06T11:45:37.393Z,26.82
2018-12-06T11:46:37.301Z,26.72
2018-12-06T11:47:37.302Z,26.73
2018-12-06T11:48:37.405Z,26.76
2018-12-06T11:49:37.307Z,26.76
2018-12-06T11:50:37.313Z,26.73
2018-12-06T11:51:37.319Z,26.73
2018-12-06T11:52:37.321Z,26.66
2018-12-06T11:53:37.321Z,26.70
2018-12-06T11:54:37.327Z,26.76
2018-12-06T11:55:37.381Z,26.76
2018-12-06T11:56:37.333Z,26.67
2018-12-06T11:57:37.337Z,26.80
2018-12-06T11:58:37.369Z,26.76
2018-12-06T11:59:37.346Z,26.75
2018-12-06T12:00:37.354Z,26.77
2018-12-06T12:01:37.468Z,26.69
2018-12-06T12:02:37.357Z,26.73
2018-12-06T12:03:37.411Z,26.82
2018-12-06T12:04:37.363Z,26.80
2018-12-06T12:05:37.372Z,26.76
2018-12-06T12:06:37.376Z,26.67
2018-12-06T12:07:37.429Z,26.75
2018-12-06T12:08:37.378Z,26.72
2018-12-06T12:09:37.382Z,26.70
2018-12-06T12:10:37.438Z,26.75
2018-12-06T12:11:37.391Z,26.82
2018-12-06T12:12:37.444Z,26.70
2018-12-06T12:13:37.406Z,26.75
2018-12-06T12:14:37.401Z,26.80
2018-12-06T12:15:37.504Z,26.72
2018-12-06T12:16:37.410Z,26.69
2018-12-06T12:17:37.412Z,26.73
2018-12-06T12:18:37.448Z,26.81
2018-12-06T12:19:37.419Z,26.77
2018-12-06T12:20:37.423Z,26.70
2018-12-06T12:21:37.423Z,26.70
2018-12-06T12:22:37.430Z,26.77
2018-12-06T12:23:37.433Z,26.72
2018-12-06T12:24:37.438Z,26.73
2018-12-06T12:25:37.445Z,26.72
2018-12-06T12:26:37.495Z,26.76
2018-12-06T12:27:37.497Z,26.77
2018-12-06T12:28:37.453Z,26.77
2018-12-06T12:29:37.459Z,26.75
2018-12-06T12:30:37.511Z,26.75
2018-12-06T12:31:37.511Z,26.72
2018-12-06T12:32:37.467Z,26.77
2018-12-06T12:33:37.488Z,26.73
2018-12-06T12:34:37.676Z,26.77
2018-12-06T12:35:37.478Z,26.75
2018-12-06T12:36:37.482Z,26.72
2018-12-06T12:37:37.485Z,26.73
2018-12-06T12:38:37.541Z,26.72
2018-12-06T12:39:37.640Z,26.72
2018-12-06T12:40:37.504Z,26.72
2018-12-06T12:41:37.500Z,26.66
2018-12-06T12:42:37.502Z,26.80
2018-12-06T12:43:37.560Z,26.77
2018-12-06T12:44:37.511Z,26.63
2018-12-06T12:45:37.565Z,26.65
2018-12-06T12:46:37.519Z,26.65
2018-12-06T12:47:37.522Z,26.58
2018-12-06T12:48:37.526Z,26.55
2018-12-06T12:49:37.981Z,26.65
2018-12-06T12:50:37.683Z,26.52
2018-12-06T12:51:37.586Z,26.48
2018-12-06T12:52:37.538Z,26.58